Airport View

Enter AWOS ICAO identifier for current METAR.

ex. KFNL

KDRO 080553Z AUTO 36006KT 10SM CLR 16/01 A3028 RMK AO2 SLP161 T01560006 10294 20144 51009

8 Aug 2020 06:15

Frequency: 120.625

Phone: 970-259-3579

Other Area AWOS: KFMN - KPSO - KCEZ - KTEX

TAF KDRO 080528Z 0806/0906 02005KT P6SM SCT120 FM081800 26006KT P6SM FEW150 FEW250 FM082100 24013G20KT P6SM SCT250 FM090200 28007KT P6SM FEW250